Lake McCoy, Indiana
Current Conditions -  °F | °C
As of 4:15 AM on Thursday 27 Nov 2014 (Local Time) from KGEZ Reporting Station
Overcast Overcast  
Wind Chill: 22°   Ceiling: 2300
Heat Index: 30°   Visibility: 10mi
Dew Point: 22°   Wind: 8mph
Humidity: 72%   Direction: 330°NNW
Pressure: 30.15"   Gusts: NA
Location:  39.3206°N, 85.4768°W
Report Text: KGEZ 270915Z AUTO 33007KT 10SM BKN023 BKN075 OVC120 M01/M06 A3015 RMK AO2 T10111056
Loading
Personal Weather Stations






























Interactive Weather Map New forecast layout! Learn more

10-Day Weather Forecast

Advertisements
Track Severe Weather on mobile